sensor_id;sensor_type;location;lat;lon;timestamp;P1;durP1;ratioP1;P2;durP2;ratioP2
52508;SDS011;38420;53.150;6.370;2023-06-10T00:01:50;11.85;;;5.90;;
52508;SDS011;38420;53.150;6.370;2023-06-10T00:04:16;11.15;;;5.53;;
52508;SDS011;38420;53.150;6.370;2023-06-10T00:06:45;12.55;;;5.38;;
52508;SDS011;38420;53.150;6.370;2023-06-10T00:09:14;9.63;;;5.88;;
52508;SDS011;38420;53.150;6.370;2023-06-10T00:11:40;11.63;;;6.20;;
52508;SDS011;38420;53.150;6.370;2023-06-10T00:14:06;12.57;;;6.32;;
52508;SDS011;38420;53.150;6.370;2023-06-10T00:16:32;9.93;;;5.82;;
52508;SDS011;38420;53.150;6.370;2023-06-10T00:19:02;11.63;;;6.15;;
52508;SDS011;38420;53.150;6.370;2023-06-10T00:21:28;9.32;;;6.00;;
52508;SDS011;38420;53.150;6.370;2023-06-10T00:23:55;9.95;;;6.10;;
52508;SDS011;38420;53.150;6.370;2023-06-10T00:26:24;11.43;;;5.85;;
52508;SDS011;38420;53.150;6.370;2023-06-10T00:28:51;12.50;;;5.75;;
52508;SDS011;38420;53.150;6.370;2023-06-10T00:31:17;13.80;;;6.38;;
52508;SDS011;38420;53.150;6.370;2023-06-10T00:33:43;11.43;;;6.50;;
52508;SDS011;38420;53.150;6.370;2023-06-10T00:36:08;11.55;;;6.75;;
52508;SDS011;38420;53.150;6.370;2023-06-10T00:38:34;10.77;;;6.90;;
52508;SDS011;38420;53.150;6.370;2023-06-10T00:41:00;13.40;;;7.28;;
52508;SDS011;38420;53.150;6.370;2023-06-10T00:43:25;14.02;;;7.03;;
52508;SDS011;38420;53.150;6.370;2023-06-10T00:45:51;12.23;;;6.95;;
52508;SDS011;38420;53.150;6.370;2023-06-10T00:48:17;14.57;;;6.28;;
52508;SDS011;38420;53.150;6.370;2023-06-10T00:50:43;11.75;;;6.13;;
52508;SDS011;38420;53.150;6.370;2023-06-10T00:53:11;10.48;;;6.20;;
52508;SDS011;38420;53.150;6.370;2023-06-10T00:55:37;10.27;;;6.28;;
52508;SDS011;38420;53.150;6.370;2023-06-10T00:58:03;10.15;;;6.50;;
52508;SDS011;38420;53.150;6.370;2023-06-10T01:00:29;12.65;;;6.38;;
52508;SDS011;38420;53.150;6.370;2023-06-10T01:02:55;11.98;;;7.05;;
52508;SDS011;38420;53.150;6.370;2023-06-10T01:05:21;10.25;;;6.63;;
52508;SDS011;38420;53.150;6.370;2023-06-10T01:08:01;8.98;;;6.65;;
52508;SDS011;38420;53.150;6.370;2023-06-10T01:13:14;13.25;;;7.85;;
52508;SDS011;38420;53.150;6.370;2023-06-10T01:15:41;11.65;;;7.70;;
52508;SDS011;38420;53.150;6.370;2023-06-10T01:18:08;12.43;;;7.22;;
52508;SDS011;38420;53.150;6.370;2023-06-10T01:20:36;13.70;;;7.70;;
52508;SDS011;38420;53.150;6.370;2023-06-10T01:23:05;14.70;;;8.38;;
52508;SDS011;38420;53.150;6.370;2023-06-10T01:25:31;16.13;;;7.78;;
52508;SDS011;38420;53.150;6.370;2023-06-10T01:28:32;9.98;;;7.65;;
52508;SDS011;38420;53.150;6.370;2023-06-10T01:34:14;10.80;;;7.78;;
52508;SDS011;38420;53.150;6.370;2023-06-10T01:36:46;13.82;;;7.93;;
52508;SDS011;38420;53.150;6.370;2023-06-10T01:39:14;16.00;;;8.55;;
52508;SDS011;38420;53.150;6.370;2023-06-10T01:41:41;13.27;;;8.07;;
52508;SDS011;38420;53.150;6.370;2023-06-10T01:44:07;14.00;;;8.38;;
52508;SDS011;38420;53.150;6.370;2023-06-10T01:46:33;14.20;;;9.18;;
52508;SDS011;38420;53.150;6.370;2023-06-10T01:48:59;14.82;;;9.45;;
52508;SDS011;38420;53.150;6.370;2023-06-10T01:51:26;16.40;;;8.73;;
52508;SDS011;38420;53.150;6.370;2023-06-10T01:53:51;16.85;;;10.35;;
52508;SDS011;38420;53.150;6.370;2023-06-10T01:56:17;19.17;;;9.52;;
52508;SDS011;38420;53.150;6.370;2023-06-10T01:58:44;18.67;;;9.60;;
52508;SDS011;38420;53.150;6.370;2023-06-10T02:01:11;12.35;;;9.48;;
52508;SDS011;38420;53.150;6.370;2023-06-10T02:03:36;12.80;;;10.30;;
52508;SDS011;38420;53.150;6.370;2023-06-10T02:06:02;16.90;;;9.93;;
52508;SDS011;38420;53.150;6.370;2023-06-10T02:08:28;14.75;;;9.43;;
52508;SDS011;38420;53.150;6.370;2023-06-10T02:10:53;15.98;;;9.65;;
52508;SDS011;38420;53.150;6.370;2023-06-10T02:13:19;12.90;;;8.68;;
52508;SDS011;38420;53.150;6.370;2023-06-10T02:15:45;17.70;;;8.45;;
52508;SDS011;38420;53.150;6.370;2023-06-10T02:18:11;14.00;;;8.77;;
52508;SDS011;38420;53.150;6.370;2023-06-10T02:20:37;11.13;;;7.60;;
52508;SDS011;38420;53.150;6.370;2023-06-10T02:23:03;11.20;;;7.20;;
52508;SDS011;38420;53.150;6.370;2023-06-10T02:25:28;12.82;;;7.57;;
52508;SDS011;38420;53.150;6.370;2023-06-10T02:27:54;13.85;;;7.80;;
52508;SDS011;38420;53.150;6.370;2023-06-10T02:30:20;11.68;;;6.30;;
52508;SDS011;38420;53.150;6.370;2023-06-10T02:32:46;11.00;;;6.70;;
52508;SDS011;38420;53.150;6.370;2023-06-10T02:35:13;13.20;;;6.88;;
52508;SDS011;38420;53.150;6.370;2023-06-10T02:37:40;11.73;;;6.43;;
52508;SDS011;38420;53.150;6.370;2023-06-10T02:40:05;12.60;;;6.38;;
52508;SDS011;38420;53.150;6.370;2023-06-10T02:42:32;9.68;;;6.32;;
52508;SDS011;38420;53.150;6.370;2023-06-10T02:44:57;13.25;;;5.90;;
52508;SDS011;38420;53.150;6.370;2023-06-10T02:47:23;12.45;;;6.10;;
52508;SDS011;38420;53.150;6.370;2023-06-10T02:49:48;11.57;;;6.07;;
52508;SDS011;38420;53.150;6.370;2023-06-10T02:52:14;9.82;;;5.78;;
52508;SDS011;38420;53.150;6.370;2023-06-10T02:54:40;11.55;;;6.00;;
52508;SDS011;38420;53.150;6.370;2023-06-10T02:57:05;8.52;;;5.28;;
52508;SDS011;38420;53.150;6.370;2023-06-10T02:59:32;13.93;;;6.32;;
52508;SDS011;38420;53.150;6.370;2023-06-10T03:01:57;14.82;;;5.88;;
52508;SDS011;38420;53.150;6.370;2023-06-10T03:04:24;12.88;;;6.55;;
52508;SDS011;38420;53.150;6.370;2023-06-10T03:06:50;9.75;;;5.95;;
52508;SDS011;38420;53.150;6.370;2023-06-10T03:09:16;13.55;;;6.43;;
52508;SDS011;38420;53.150;6.370;2023-06-10T03:11:41;9.50;;;5.45;;
52508;SDS011;38420;53.150;6.370;2023-06-10T03:14:07;10.27;;;5.82;;
52508;SDS011;38420;53.150;6.370;2023-06-10T03:16:32;11.30;;;5.95;;
52508;SDS011;38420;53.150;6.370;2023-06-10T03:18:58;9.38;;;5.75;;
52508;SDS011;38420;53.150;6.370;2023-06-10T03:21:24;9.20;;;5.47;;
52508;SDS011;38420;53.150;6.370;2023-06-10T03:23:49;10.05;;;5.82;;
52508;SDS011;38420;53.150;6.370;2023-06-10T03:26:15;11.05;;;5.93;;
52508;SDS011;38420;53.150;6.370;2023-06-10T03:28:41;10.15;;;5.95;;
52508;SDS011;38420;53.150;6.370;2023-06-10T03:31:07;13.77;;;5.43;;
52508;SDS011;38420;53.150;6.370;2023-06-10T03:33:33;12.73;;;6.13;;
52508;SDS011;38420;53.150;6.370;2023-06-10T03:35:58;11.73;;;5.50;;
52508;SDS011;38420;53.150;6.370;2023-06-10T03:38:24;13.20;;;5.50;;
52508;SDS011;38420;53.150;6.370;2023-06-10T03:40:50;8.25;;;4.95;;
52508;SDS011;38420;53.150;6.370;2023-06-10T03:43:15;12.73;;;5.82;;
52508;SDS011;38420;53.150;6.370;2023-06-10T03:45:41;11.45;;;5.78;;
52508;SDS011;38420;53.150;6.370;2023-06-10T03:48:06;13.23;;;6.15;;
52508;SDS011;38420;53.150;6.370;2023-06-10T03:50:33;13.40;;;6.43;;
52508;SDS011;38420;53.150;6.370;2023-06-10T03:52:59;13.77;;;6.43;;
52508;SDS011;38420;53.150;6.370;2023-06-10T03:55:25;10.00;;;5.85;;
52508;SDS011;38420;53.150;6.370;2023-06-10T03:57:51;12.23;;;5.90;;
52508;SDS011;38420;53.150;6.370;2023-06-10T04:00:16;10.85;;;6.13;;
52508;SDS011;38420;53.150;6.370;2023-06-10T04:02:43;11.02;;;5.43;;
52508;SDS011;38420;53.150;6.370;2023-06-10T04:05:14;12.00;;;6.38;;
52508;SDS011;38420;53.150;6.370;2023-06-10T04:07:41;8.45;;;5.80;;
52508;SDS011;38420;53.150;6.370;2023-06-10T04:10:09;18.38;;;5.78;;
52508;SDS011;38420;53.150;6.370;2023-06-10T04:12:35;13.60;;;6.60;;
52508;SDS011;38420;53.150;6.370;2023-06-10T04:15:02;14.98;;;6.70;;
52508;SDS011;38420;53.150;6.370;2023-06-10T04:17:28;13.55;;;7.10;;
52508;SDS011;38420;53.150;6.370;2023-06-10T04:19:54;12.20;;;6.82;;
52508;SDS011;38420;53.150;6.370;2023-06-10T04:22:23;12.63;;;6.18;;
52508;SDS011;38420;53.150;6.370;2023-06-10T04:24:48;15.20;;;7.40;;
52508;SDS011;38420;53.150;6.370;2023-06-10T04:27:14;10.65;;;6.38;;
52508;SDS011;38420;53.150;6.370;2023-06-10T04:29:40;11.65;;;6.90;;
52508;SDS011;38420;53.150;6.370;2023-06-10T04:32:06;15.13;;;7.07;;
52508;SDS011;38420;53.150;6.370;2023-06-10T04:34:35;12.60;;;7.10;;
52508;SDS011;38420;53.150;6.370;2023-06-10T04:37:04;11.90;;;6.18;;
52508;SDS011;38420;53.150;6.370;2023-06-10T04:39:30;12.85;;;6.78;;
52508;SDS011;38420;53.150;6.370;2023-06-10T04:41:55;18.83;;;6.90;;
52508;SDS011;38420;53.150;6.370;2023-06-10T04:44:21;15.90;;;7.68;;
52508;SDS011;38420;53.150;6.370;2023-06-10T04:46:46;13.45;;;7.43;;
52508;SDS011;38420;53.150;6.370;2023-06-10T04:49:13;16.58;;;7.78;;
52508;SDS011;38420;53.150;6.370;2023-06-10T04:51:40;19.90;;;7.75;;
52508;SDS011;38420;53.150;6.370;2023-06-10T04:54:06;15.05;;;7.40;;
52508;SDS011;38420;53.150;6.370;2023-06-10T04:56:31;11.50;;;7.32;;
52508;SDS011;38420;53.150;6.370;2023-06-10T04:58:57;15.65;;;7.00;;
52508;SDS011;38420;53.150;6.370;2023-06-10T05:01:23;16.45;;;7.45;;
52508;SDS011;38420;53.150;6.370;2023-06-10T05:03:48;17.65;;;8.13;;
52508;SDS011;38420;53.150;6.370;2023-06-10T05:06:14;12.52;;;6.25;;
52508;SDS011;38420;53.150;6.370;2023-06-10T05:08:40;16.30;;;7.53;;
52508;SDS011;38420;53.150;6.370;2023-06-10T05:11:05;18.95;;;7.78;;
52508;SDS011;38420;53.150;6.370;2023-06-10T05:13:31;16.35;;;6.57;;
52508;SDS011;38420;53.150;6.370;2023-06-10T05:15:57;12.40;;;6.47;;
52508;SDS011;38420;53.150;6.370;2023-06-10T05:18:23;13.93;;;7.60;;
52508;SDS011;38420;53.150;6.370;2023-06-10T05:20:48;20.55;;;7.80;;
52508;SDS011;38420;53.150;6.370;2023-06-10T05:23:14;17.23;;;8.23;;
52508;SDS011;38420;53.150;6.370;2023-06-10T05:25:40;19.38;;;7.18;;
52508;SDS011;38420;53.150;6.370;2023-06-10T05:28:06;16.08;;;7.57;;
52508;SDS011;38420;53.150;6.370;2023-06-10T05:30:35;10.48;;;7.18;;
52508;SDS011;38420;53.150;6.370;2023-06-10T05:33:01;13.20;;;7.63;;
52508;SDS011;38420;53.150;6.370;2023-06-10T05:35:26;12.52;;;7.90;;
52508;SDS011;38420;53.150;6.370;2023-06-10T05:37:52;11.73;;;6.97;;
52508;SDS011;38420;53.150;6.370;2023-06-10T05:40:17;17.27;;;7.47;;
52508;SDS011;38420;53.150;6.370;2023-06-10T05:42:43;14.48;;;6.90;;
52508;SDS011;38420;53.150;6.370;2023-06-10T05:45:09;12.80;;;7.35;;
52508;SDS011;38420;53.150;6.370;2023-06-10T05:47:35;14.27;;;7.03;;
52508;SDS011;38420;53.150;6.370;2023-06-10T05:50:00;13.93;;;7.07;;
52508;SDS011;38420;53.150;6.370;2023-06-10T05:52:27;16.35;;;7.90;;
52508;SDS011;38420;53.150;6.370;2023-06-10T05:54:52;14.70;;;6.65;;
52508;SDS011;38420;53.150;6.370;2023-06-10T05:57:19;15.63;;;7.07;;
52508;SDS011;38420;53.150;6.370;2023-06-10T05:59:45;15.77;;;7.68;;
52508;SDS011;38420;53.150;6.370;2023-06-10T06:02:10;13.40;;;7.13;;
52508;SDS011;38420;53.150;6.370;2023-06-10T06:04:36;11.90;;;7.32;;
52508;SDS011;38420;53.150;6.370;2023-06-10T06:07:01;17.25;;;7.65;;
52508;SDS011;38420;53.150;6.370;2023-06-10T06:09:27;11.00;;;6.78;;
52508;SDS011;38420;53.150;6.370;2023-06-10T06:11:53;13.20;;;6.43;;
52508;SDS011;38420;53.150;6.370;2023-06-10T06:14:18;11.98;;;7.07;;
52508;SDS011;38420;53.150;6.370;2023-06-10T06:16:44;13.38;;;6.78;;
52508;SDS011;38420;53.150;6.370;2023-06-10T06:19:09;12.02;;;6.53;;
52508;SDS011;38420;53.150;6.370;2023-06-10T06:21:36;11.20;;;7.00;;
52508;SDS011;38420;53.150;6.370;2023-06-10T06:24:02;15.23;;;7.55;;
52508;SDS011;38420;53.150;6.370;2023-06-10T06:26:27;13.57;;;7.13;;
52508;SDS011;38420;53.150;6.370;2023-06-10T06:28:53;13.98;;;6.72;;
52508;SDS011;38420;53.150;6.370;2023-06-10T06:31:18;15.30;;;7.10;;
52508;SDS011;38420;53.150;6.370;2023-06-10T06:33:47;9.20;;;6.40;;
52508;SDS011;38420;53.150;6.370;2023-06-10T06:36:12;13.43;;;7.28;;
52508;SDS011;38420;53.150;6.370;2023-06-10T06:38:38;11.68;;;7.22;;
52508;SDS011;38420;53.150;6.370;2023-06-10T06:41:04;12.23;;;7.10;;
52508;SDS011;38420;53.150;6.370;2023-06-10T06:43:31;17.60;;;6.88;;
52508;SDS011;38420;53.150;6.370;2023-06-10T06:45:57;13.38;;;6.38;;
52508;SDS011;38420;53.150;6.370;2023-06-10T06:48:23;14.90;;;6.60;;
52508;SDS011;38420;53.150;6.370;2023-06-10T06:50:49;13.35;;;6.60;;
52508;SDS011;38420;53.150;6.370;2023-06-10T06:53:15;14.00;;;5.85;;
52508;SDS011;38420;53.150;6.370;2023-06-10T06:55:40;10.95;;;5.65;;
52508;SDS011;38420;53.150;6.370;2023-06-10T06:58:06;13.25;;;6.18;;
52508;SDS011;38420;53.150;6.370;2023-06-10T07:00:32;13.07;;;6.15;;
52508;SDS011;38420;53.150;6.370;2023-06-10T07:02:57;11.07;;;6.38;;
52508;SDS011;38420;53.150;6.370;2023-06-10T07:05:24;14.45;;;6.25;;
52508;SDS011;38420;53.150;6.370;2023-06-10T07:07:52;10.07;;;5.30;;
52508;SDS011;38420;53.150;6.370;2023-06-10T07:10:21;12.95;;;5.13;;
52508;SDS011;38420;53.150;6.370;2023-06-10T07:12:47;10.60;;;5.95;;
52508;SDS011;38420;53.150;6.370;2023-06-10T07:15:13;10.32;;;5.53;;
52508;SDS011;38420;53.150;6.370;2023-06-10T07:17:38;12.05;;;5.90;;
52508;SDS011;38420;53.150;6.370;2023-06-10T07:20:04;12.98;;;5.43;;
52508;SDS011;38420;53.150;6.370;2023-06-10T07:22:30;10.43;;;5.93;;
52508;SDS011;38420;53.150;6.370;2023-06-10T07:24:57;16.25;;;5.07;;
52508;SDS011;38420;53.150;6.370;2023-06-10T07:27:22;14.27;;;5.07;;
52508;SDS011;38420;53.150;6.370;2023-06-10T07:29:48;11.45;;;5.55;;
52508;SDS011;38420;53.150;6.370;2023-06-10T07:32:15;12.15;;;6.28;;
52508;SDS011;38420;53.150;6.370;2023-06-10T07:34:41;10.77;;;5.70;;
52508;SDS011;38420;53.150;6.370;2023-06-10T07:37:06;10.95;;;5.45;;
52508;SDS011;38420;53.150;6.370;2023-06-10T07:39:32;9.25;;;5.10;;
52508;SDS011;38420;53.150;6.370;2023-06-10T07:41:57;7.40;;;5.32;;
52508;SDS011;38420;53.150;6.370;2023-06-10T07:44:23;9.95;;;4.95;;
52508;SDS011;38420;53.150;6.370;2023-06-10T07:46:49;9.20;;;3.95;;
52508;SDS011;38420;53.150;6.370;2023-06-10T07:49:15;12.35;;;4.75;;
52508;SDS011;38420;53.150;6.370;2023-06-10T07:51:40;7.53;;;4.82;;
52508;SDS011;38420;53.150;6.370;2023-06-10T07:54:06;9.88;;;5.22;;
52508;SDS011;38420;53.150;6.370;2023-06-10T07:56:32;7.88;;;5.43;;
52508;SDS011;38420;53.150;6.370;2023-06-10T07:58:57;8.23;;;5.25;;
52508;SDS011;38420;53.150;6.370;2023-06-10T08:01:23;10.13;;;5.45;;
52508;SDS011;38420;53.150;6.370;2023-06-10T08:03:49;10.70;;;5.78;;
52508;SDS011;38420;53.150;6.370;2023-06-10T08:06:15;10.43;;;6.35;;
52508;SDS011;38420;53.150;6.370;2023-06-10T08:08:42;10.23;;;6.72;;
52508;SDS011;38420;53.150;6.370;2023-06-10T08:11:09;9.73;;;6.47;;
52508;SDS011;38420;53.150;6.370;2023-06-10T08:13:37;11.48;;;6.45;;
52508;SDS011;38420;53.150;6.370;2023-06-10T08:16:03;10.85;;;6.53;;
52508;SDS011;38420;53.150;6.370;2023-06-10T08:18:29;12.77;;;6.55;;
52508;SDS011;38420;53.150;6.370;2023-06-10T08:20:54;9.32;;;5.90;;
52508;SDS011;38420;53.150;6.370;2023-06-10T08:23:20;12.38;;;7.22;;
52508;SDS011;38420;53.150;6.370;2023-06-10T08:25:46;8.13;;;4.93;;
52508;SDS011;38420;53.150;6.370;2023-06-10T08:28:11;9.27;;;6.10;;
52508;SDS011;38420;53.150;6.370;2023-06-10T08:30:37;9.65;;;5.78;;
52508;SDS011;38420;53.150;6.370;2023-06-10T08:33:03;8.27;;;4.75;;
52508;SDS011;38420;53.150;6.370;2023-06-10T08:35:28;8.52;;;5.00;;
52508;SDS011;38420;53.150;6.370;2023-06-10T08:37:54;8.75;;;5.43;;
52508;SDS011;38420;53.150;6.370;2023-06-10T08:40:19;12.45;;;5.53;;
52508;SDS011;38420;53.150;6.370;2023-06-10T08:42:48;12.52;;;5.72;;
52508;SDS011;38420;53.150;6.370;2023-06-10T08:45:18;7.88;;;5.55;;
52508;SDS011;38420;53.150;6.370;2023-06-10T08:47:46;8.65;;;6.20;;
52508;SDS011;38420;53.150;6.370;2023-06-10T08:50:16;10.43;;;5.75;;
52508;SDS011;38420;53.150;6.370;2023-06-10T08:52:43;9.52;;;5.43;;
52508;SDS011;38420;53.150;6.370;2023-06-10T08:55:18;8.65;;;5.70;;
52508;SDS011;38420;53.150;6.370;2023-06-10T08:57:52;10.57;;;5.93;;
52508;SDS011;38420;53.150;6.370;2023-06-10T09:00:19;10.05;;;5.75;;
52508;SDS011;38420;53.150;6.370;2023-06-10T09:02:46;8.50;;;5.20;;
52508;SDS011;38420;53.150;6.370;2023-06-10T09:05:12;10.15;;;4.97;;
52508;SDS011;38420;53.150;6.370;2023-06-10T09:07:38;9.65;;;5.22;;
52508;SDS011;38420;53.150;6.370;2023-06-10T09:10:04;9.68;;;5.57;;
52508;SDS011;38420;53.150;6.370;2023-06-10T09:12:32;9.95;;;5.15;;
52508;SDS011;38420;53.150;6.370;2023-06-10T09:14:59;8.25;;;5.70;;
52508;SDS011;38420;53.150;6.370;2023-06-10T09:17:26;11.35;;;5.65;;
52508;SDS011;38420;53.150;6.370;2023-06-10T09:19:52;9.05;;;5.43;;
52508;SDS011;38420;53.150;6.370;2023-06-10T09:22:20;7.93;;;4.57;;
52508;SDS011;38420;53.150;6.370;2023-06-10T09:24:49;11.52;;;5.97;;
52508;SDS011;38420;53.150;6.370;2023-06-10T09:27:15;9.30;;;5.18;;
52508;SDS011;38420;53.150;6.370;2023-06-10T09:29:53;10.10;;;5.10;;
52508;SDS011;38420;53.150;6.370;2023-06-10T09:32:20;7.88;;;5.15;;
52508;SDS011;38420;53.150;6.370;2023-06-10T09:34:46;10.43;;;5.65;;
52508;SDS011;38420;53.150;6.370;2023-06-10T09:37:12;8.20;;;4.85;;
52508;SDS011;38420;53.150;6.370;2023-06-10T09:39:53;10.02;;;4.80;;
52508;SDS011;38420;53.150;6.370;2023-06-10T09:42:27;9.25;;;5.30;;
52508;SDS011;38420;53.150;6.370;2023-06-10T09:44:52;7.10;;;4.85;;
52508;SDS011;38420;53.150;6.370;2023-06-10T09:47:21;9.38;;;5.18;;
52508;SDS011;38420;53.150;6.370;2023-06-10T09:49:48;9.05;;;4.93;;
52508;SDS011;38420;53.150;6.370;2023-06-10T09:52:14;7.35;;;4.07;;
52508;SDS011;38420;53.150;6.370;2023-06-10T09:54:46;10.63;;;5.18;;
52508;SDS011;38420;53.150;6.370;2023-06-10T09:57:12;7.10;;;4.55;;
52508;SDS011;38420;53.150;6.370;2023-06-10T09:59:39;7.38;;;4.57;;
52508;SDS011;38420;53.150;6.370;2023-06-10T10:02:06;11.55;;;4.72;;
52508;SDS011;38420;53.150;6.370;2023-06-10T10:04:38;10.80;;;4.85;;
52508;SDS011;38420;53.150;6.370;2023-06-10T10:07:03;8.05;;;4.40;;
52508;SDS011;38420;53.150;6.370;2023-06-10T10:09:29;9.20;;;4.57;;
52508;SDS011;38420;53.150;6.370;2023-06-10T10:11:55;12.05;;;4.75;;
52508;SDS011;38420;53.150;6.370;2023-06-10T10:14:22;8.07;;;4.70;;
52508;SDS011;38420;53.150;6.370;2023-06-10T10:16:48;11.35;;;4.53;;
52508;SDS011;38420;53.150;6.370;2023-06-10T10:19:20;10.50;;;5.07;;
52508;SDS011;38420;53.150;6.370;2023-06-10T10:21:54;10.55;;;4.30;;
52508;SDS011;38420;53.150;6.370;2023-06-10T10:24:30;8.07;;;4.28;;
52508;SDS011;38420;53.150;6.370;2023-06-10T10:27:01;9.95;;;4.00;;
52508;SDS011;38420;53.150;6.370;2023-06-10T10:29:38;7.75;;;3.80;;
52508;SDS011;38420;53.150;6.370;2023-06-10T10:34:35;5.07;;;4.05;;
52508;SDS011;38420;53.150;6.370;2023-06-10T10:37:08;10.68;;;4.72;;
52508;SDS011;38420;53.150;6.370;2023-06-10T10:39:34;8.82;;;4.00;;
52508;SDS011;38420;53.150;6.370;2023-06-10T10:42:01;10.95;;;4.45;;
52508;SDS011;38420;53.150;6.370;2023-06-10T10:44:29;10.02;;;4.90;;
52508;SDS011;38420;53.150;6.370;2023-06-10T10:46:55;6.70;;;4.07;;
52508;SDS011;38420;53.150;6.370;2023-06-10T10:49:22;6.97;;;4.60;;
52508;SDS011;38420;53.150;6.370;2023-06-10T10:52:02;9.57;;;4.90;;
52508;SDS011;38420;53.150;6.370;2023-06-10T10:54:34;6.78;;;3.78;;
52508;SDS011;38420;53.150;6.370;2023-06-10T10:59:51;8.75;;;4.43;;
52508;SDS011;38420;53.150;6.370;2023-06-10T11:02:36;8.82;;;4.53;;
52508;SDS011;38420;53.150;6.370;2023-06-10T11:05:07;9.75;;;4.15;;
52508;SDS011;38420;53.150;6.370;2023-06-10T11:07:33;8.25;;;4.25;;
52508;SDS011;38420;53.150;6.370;2023-06-10T11:10:07;8.18;;;3.92;;
52508;SDS011;38420;53.150;6.370;2023-06-10T11:15:11;9.60;;;4.13;;
52508;SDS011;38420;53.150;6.370;2023-06-10T11:20:51;5.68;;;4.10;;
52508;SDS011;38420;53.150;6.370;2023-06-10T11:26:43;9.13;;;4.60;;
52508;SDS011;38420;53.150;6.370;2023-06-10T11:28:39;8.10;;;4.10;;
52508;SDS011;38420;53.150;6.370;2023-06-10T11:31:23;7.57;;;4.43;;
52508;SDS011;38420;53.150;6.370;2023-06-10T11:34:00;9.68;;;4.32;;
52508;SDS011;38420;53.150;6.370;2023-06-10T11:36:30;6.32;;;3.65;;
52508;SDS011;38420;53.150;6.370;2023-06-10T11:38:59;9.05;;;4.05;;
52508;SDS011;38420;53.150;6.370;2023-06-10T11:41:26;6.68;;;4.38;;
52508;SDS011;38420;53.150;6.370;2023-06-10T11:43:53;8.48;;;4.30;;
52508;SDS011;38420;53.150;6.370;2023-06-10T11:46:21;5.50;;;3.50;;
52508;SDS011;38420;53.150;6.370;2023-06-10T11:49:00;7.50;;;4.03;;
52508;SDS011;38420;53.150;6.370;2023-06-10T11:51:32;8.85;;;3.88;;
52508;SDS011;38420;53.150;6.370;2023-06-10T11:54:00;7.53;;;3.85;;
52508;SDS011;38420;53.150;6.370;2023-06-10T11:56:26;9.27;;;3.55;;
52508;SDS011;38420;53.150;6.370;2023-06-10T11:58:53;9.27;;;4.30;;
52508;SDS011;38420;53.150;6.370;2023-06-10T12:01:20;8.20;;;4.22;;
52508;SDS011;38420;53.150;6.370;2023-06-10T12:03:47;5.30;;;4.20;;
52508;SDS011;38420;53.150;6.370;2023-06-10T12:06:13;6.38;;;4.57;;
52508;SDS011;38420;53.150;6.370;2023-06-10T12:08:41;5.90;;;4.18;;
52508;SDS011;38420;53.150;6.370;2023-06-10T12:11:08;9.27;;;4.57;;
52508;SDS011;38420;53.150;6.370;2023-06-10T12:13:34;6.35;;;4.20;;
52508;SDS011;38420;53.150;6.370;2023-06-10T12:16:08;6.35;;;4.00;;
52508;SDS011;38420;53.150;6.370;2023-06-10T12:18:35;6.57;;;4.35;;
52508;SDS011;38420;53.150;6.370;2023-06-10T12:21:00;5.80;;;4.10;;
52508;SDS011;38420;53.150;6.370;2023-06-10T12:23:28;6.43;;;3.72;;
52508;SDS011;38420;53.150;6.370;2023-06-10T12:25:54;10.38;;;4.25;;
52508;SDS011;38420;53.150;6.370;2023-06-10T12:28:21;6.38;;;3.67;;
52508;SDS011;38420;53.150;6.370;2023-06-10T12:30:51;6.80;;;4.27;;
52508;SDS011;38420;53.150;6.370;2023-06-10T12:36:01;5.43;;;3.78;;
52508;SDS011;38420;53.150;6.370;2023-06-10T12:38:27;10.13;;;4.05;;
52508;SDS011;38420;53.150;6.370;2023-06-10T12:40:53;15.45;;;10.52;;
52508;SDS011;38420;53.150;6.370;2023-06-10T12:43:24;8.65;;;3.70;;
52508;SDS011;38420;53.150;6.370;2023-06-10T12:45:50;7.63;;;4.28;;
52508;SDS011;38420;53.150;6.370;2023-06-10T12:48:22;5.97;;;4.07;;
52508;SDS011;38420;53.150;6.370;2023-06-10T12:50:53;6.95;;;4.15;;
52508;SDS011;38420;53.150;6.370;2023-06-10T12:53:23;7.90;;;4.30;;
52508;SDS011;38420;53.150;6.370;2023-06-10T12:55:50;7.50;;;3.97;;
52508;SDS011;38420;53.150;6.370;2023-06-10T12:58:16;6.03;;;3.95;;
52508;SDS011;38420;53.150;6.370;2023-06-10T13:00:42;5.95;;;3.85;;
52508;SDS011;38420;53.150;6.370;2023-06-10T13:03:08;5.93;;;4.30;;
52508;SDS011;38420;53.150;6.370;2023-06-10T13:05:35;5.05;;;3.83;;
52508;SDS011;38420;53.150;6.370;2023-06-10T13:08:07;5.88;;;3.40;;
52508;SDS011;38420;53.150;6.370;2023-06-10T13:13:01;8.65;;;3.80;;
52508;SDS011;38420;53.150;6.370;2023-06-10T13:15:27;8.88;;;4.43;;
52508;SDS011;38420;53.150;6.370;2023-06-10T13:17:53;7.82;;;4.28;;
52508;SDS011;38420;53.150;6.370;2023-06-10T13:20:19;6.85;;;4.25;;
52508;SDS011;38420;53.150;6.370;2023-06-10T13:22:45;7.57;;;4.80;;
52508;SDS011;38420;53.150;6.370;2023-06-10T13:25:12;8.13;;;4.80;;
52508;SDS011;38420;53.150;6.370;2023-06-10T13:27:38;7.63;;;4.60;;
52508;SDS011;38420;53.150;6.370;2023-06-10T13:30:04;8.85;;;4.72;;
52508;SDS011;38420;53.150;6.370;2023-06-10T13:32:31;7.20;;;4.47;;
52508;SDS011;38420;53.150;6.370;2023-06-10T13:34:56;7.30;;;4.50;;
52508;SDS011;38420;53.150;6.370;2023-06-10T13:37:22;9.77;;;4.85;;
52508;SDS011;38420;53.150;6.370;2023-06-10T13:39:48;8.13;;;4.75;;
52508;SDS011;38420;53.150;6.370;2023-06-10T13:42:16;8.48;;;4.60;;
52508;SDS011;38420;53.150;6.370;2023-06-10T13:44:45;7.37;;;4.40;;
52508;SDS011;38420;53.150;6.370;2023-06-10T13:47:12;10.60;;;5.10;;
52508;SDS011;38420;53.150;6.370;2023-06-10T13:49:38;8.60;;;4.65;;
52508;SDS011;38420;53.150;6.370;2023-06-10T13:52:05;6.25;;;4.45;;
52508;SDS011;38420;53.150;6.370;2023-06-10T13:54:31;6.50;;;5.10;;
52508;SDS011;38420;53.150;6.370;2023-06-10T13:56:57;10.23;;;5.45;;
52508;SDS011;38420;53.150;6.370;2023-06-10T13:59:23;8.25;;;5.03;;
52508;SDS011;38420;53.150;6.370;2023-06-10T14:01:48;7.07;;;4.18;;
52508;SDS011;38420;53.150;6.370;2023-06-10T14:04:14;10.75;;;5.07;;
52508;SDS011;38420;53.150;6.370;2023-06-10T14:06:39;10.15;;;5.32;;
52508;SDS011;38420;53.150;6.370;2023-06-10T14:09:05;11.23;;;4.82;;
52508;SDS011;38420;53.150;6.370;2023-06-10T14:11:31;6.22;;;4.75;;
52508;SDS011;38420;53.150;6.370;2023-06-10T14:13:56;7.55;;;4.75;;
52508;SDS011;38420;53.150;6.370;2023-06-10T14:16:22;8.73;;;5.40;;
52508;SDS011;38420;53.150;6.370;2023-06-10T14:18:49;7.57;;;4.00;;
52508;SDS011;38420;53.150;6.370;2023-06-10T14:21:16;6.55;;;3.90;;
52508;SDS011;38420;53.150;6.370;2023-06-10T14:23:41;6.40;;;4.47;;
52508;SDS011;38420;53.150;6.370;2023-06-10T14:26:08;5.90;;;4.38;;
52508;SDS011;38420;53.150;6.370;2023-06-10T14:28:34;6.72;;;3.83;;
52508;SDS011;38420;53.150;6.370;2023-06-10T14:31:00;5.82;;;3.90;;
52508;SDS011;38420;53.150;6.370;2023-06-10T14:33:26;6.53;;;3.60;;
52508;SDS011;38420;53.150;6.370;2023-06-10T14:35:51;5.28;;;3.47;;
52508;SDS011;38420;53.150;6.370;2023-06-10T14:38:17;6.97;;;3.95;;
52508;SDS011;38420;53.150;6.370;2023-06-10T14:40:43;6.88;;;3.17;;
52508;SDS011;38420;53.150;6.370;2023-06-10T14:43:09;6.13;;;3.88;;
52508;SDS011;38420;53.150;6.370;2023-06-10T14:45:38;8.27;;;3.90;;
52508;SDS011;38420;53.150;6.370;2023-06-10T14:48:05;7.72;;;3.60;;
52508;SDS011;38420;53.150;6.370;2023-06-10T14:50:31;8.25;;;4.07;;
52508;SDS011;38420;53.150;6.370;2023-06-10T14:52:58;8.20;;;3.45;;
52508;SDS011;38420;53.150;6.370;2023-06-10T14:55:23;6.90;;;3.50;;
52508;SDS011;38420;53.150;6.370;2023-06-10T14:57:49;6.65;;;3.65;;
52508;SDS011;38420;53.150;6.370;2023-06-10T15:00:15;7.80;;;3.50;;
52508;SDS011;38420;53.150;6.370;2023-06-10T15:02:44;5.68;;;3.45;;
52508;SDS011;38420;53.150;6.370;2023-06-10T15:05:13;6.97;;;3.80;;